createdAt,value
2018-07-13T00:01:54.219Z,8.93
2018-07-13T00:04:23.206Z,8.23
2018-07-13T00:06:52.166Z,8.47
2018-07-13T00:09:21.194Z,8.37
2018-07-13T00:11:50.246Z,8.20
2018-07-13T00:14:21.178Z,9.67
2018-07-13T00:16:51.374Z,8.13
2018-07-13T00:19:20.938Z,8.93
2018-07-13T00:21:49.947Z,9.50
2018-07-13T00:24:18.942Z,8.27
2018-07-13T00:26:47.934Z,8.80
2018-07-13T00:29:16.928Z,8.20
2018-07-13T00:31:45.949Z,8.43
2018-07-13T00:34:14.882Z,8.47
2018-07-13T00:36:43.858Z,8.00
2018-07-13T00:39:13.704Z,8.47
2018-07-13T00:41:42.695Z,8.43
2018-07-13T00:44:11.687Z,8.73
2018-07-13T00:46:40.642Z,9.03
2018-07-13T00:49:09.608Z,8.57
2018-07-13T00:51:38.598Z,8.37
2018-07-13T00:54:07.580Z,8.63
2018-07-13T00:56:36.524Z,9.13
2018-07-13T00:59:05.485Z,10.00
2018-07-13T01:01:34.454Z,8.97
2018-07-13T01:04:03.464Z,9.97
2018-07-13T01:06:32.488Z,8.70
2018-07-13T01:09:01.452Z,9.43
2018-07-13T01:11:30.451Z,8.47
2018-07-13T01:13:59.434Z,9.33
2018-07-13T01:16:28.423Z,11.23
2018-07-13T01:18:57.459Z,9.37
2018-07-13T01:21:26.450Z,8.73
2018-07-13T01:23:55.514Z,9.80
2018-07-13T01:26:24.518Z,9.27
2018-07-13T01:28:53.486Z,9.90
2018-07-13T01:31:22.506Z,9.33
2018-07-13T01:33:51.526Z,9.17
2018-07-13T01:36:20.506Z,9.33
2018-07-13T01:38:49.471Z,9.00
2018-07-13T01:41:18.481Z,9.67
2018-07-13T01:43:47.454Z,9.53
2018-07-13T01:46:16.477Z,8.70
2018-07-13T01:48:45.454Z,8.80
2018-07-13T01:51:14.427Z,9.33
2018-07-13T01:53:43.415Z,8.60
2018-07-13T01:56:12.366Z,9.40
2018-07-13T01:58:41.381Z,9.77
2018-07-13T02:01:10.367Z,9.83
2018-07-13T02:03:39.349Z,9.53
2018-07-13T02:06:08.293Z,9.27
2018-07-13T02:08:37.371Z,8.93
2018-07-13T02:11:13.020Z,8.87
2018-07-13T02:13:42.058Z,9.97
2018-07-13T02:16:11.009Z,9.00
2018-07-13T02:18:39.993Z,9.83
2018-07-13T02:21:09.034Z,9.87
2018-07-13T02:23:38.031Z,9.50
2018-07-13T02:26:07.003Z,8.50
2018-07-13T02:28:36.002Z,9.13
2018-07-13T02:31:05.055Z,10.00
2018-07-13T02:33:34.046Z,9.40
2018-07-13T02:36:03.042Z,9.87
2018-07-13T02:38:32.083Z,9.80
2018-07-13T02:41:01.051Z,10.20
2018-07-13T02:43:30.079Z,10.20
2018-07-13T02:45:59.076Z,10.83
2018-07-13T02:48:28.096Z,10.90
2018-07-13T02:50:57.099Z,10.77
2018-07-13T02:53:26.123Z,10.33
2018-07-13T02:55:55.107Z,9.67
2018-07-13T02:58:24.180Z,10.30
2018-07-13T03:00:53.139Z,10.13
2018-07-13T03:03:22.186Z,10.43
2018-07-13T03:05:51.206Z,10.13
2018-07-13T03:08:20.212Z,10.40
2018-07-13T03:10:49.203Z,11.70
2018-07-13T03:13:18.214Z,10.87
2018-07-13T03:15:47.328Z,10.17
2018-07-13T03:18:16.374Z,9.90
2018-07-13T03:20:45.379Z,11.57
2018-07-13T03:23:14.399Z,10.30
2018-07-13T03:25:43.370Z,11.30
2018-07-13T03:28:12.350Z,11.47
2018-07-13T03:30:41.330Z,10.87
2018-07-13T03:33:10.336Z,11.07
2018-07-13T03:35:39.302Z,10.53
2018-07-13T03:38:08.294Z,10.73
2018-07-13T03:40:37.423Z,10.47
2018-07-13T03:43:06.471Z,9.87
2018-07-13T03:45:35.507Z,11.50
2018-07-13T03:48:04.514Z,9.90
2018-07-13T03:50:33.522Z,11.07
2018-07-13T03:53:02.527Z,11.10
2018-07-13T03:55:31.522Z,10.53
2018-07-13T03:58:00.489Z,11.40
2018-07-13T04:00:29.499Z,12.13
2018-07-13T04:02:58.469Z,11.17
2018-07-13T04:05:27.458Z,11.43
2018-07-13T04:07:56.456Z,11.13
2018-07-13T04:10:25.923Z,10.90
2018-07-13T04:12:55.066Z,11.63
2018-07-13T04:15:24.038Z,10.80
2018-07-13T04:17:53.029Z,10.90
2018-07-13T04:20:22.117Z,11.30
2018-07-13T04:22:51.166Z,12.80
2018-07-13T04:25:20.311Z,13.20
2018-07-13T04:27:49.413Z,12.60
2018-07-13T04:30:18.446Z,11.33
2018-07-13T04:32:47.450Z,12.17
2018-07-13T04:35:16.414Z,11.50
2018-07-13T04:37:45.446Z,12.33
2018-07-13T04:40:14.455Z,11.43
2018-07-13T04:42:43.465Z,11.10
2018-07-13T04:45:12.487Z,13.20
2018-07-13T04:47:41.643Z,13.63
2018-07-13T04:50:10.691Z,12.67
2018-07-13T04:52:39.650Z,10.77
2018-07-13T04:55:08.619Z,10.70
2018-07-13T04:57:37.734Z,10.30
2018-07-13T05:00:06.740Z,11.50
2018-07-13T05:02:36.043Z,11.13
2018-07-13T05:05:05.642Z,11.27
2018-07-13T05:07:34.654Z,11.27
2018-07-13T05:10:03.674Z,11.60
2018-07-13T05:12:32.646Z,10.57
2018-07-13T05:15:01.623Z,11.10
2018-07-13T05:17:30.609Z,12.30
2018-07-13T05:19:59.699Z,11.83
2018-07-13T05:22:28.890Z,13.70
2018-07-13T05:24:57.983Z,12.13
2018-07-13T05:27:27.271Z,10.53
2018-07-13T05:29:56.267Z,11.43
2018-07-13T05:32:25.274Z,11.50
2018-07-13T05:34:54.559Z,12.17
2018-07-13T05:37:23.570Z,12.07
2018-07-13T05:39:52.607Z,11.23
2018-07-13T05:42:21.593Z,13.13
2018-07-13T05:44:50.601Z,11.60
2018-07-13T05:47:19.643Z,10.67
2018-07-13T05:49:48.651Z,11.37
2018-07-13T05:52:17.746Z,11.10
2018-07-13T05:54:46.818Z,12.17
2018-07-13T05:57:15.867Z,12.00
2018-07-13T05:59:45.110Z,11.47
2018-07-13T06:02:14.146Z,11.90
2018-07-13T06:04:43.142Z,11.70
2018-07-13T06:07:12.187Z,12.87
2018-07-13T06:09:41.323Z,12.23
2018-07-13T06:12:10.346Z,13.13
2018-07-13T06:14:39.463Z,12.47
2018-07-13T06:17:08.402Z,15.73
2018-07-13T06:19:37.438Z,12.30
2018-07-13T06:22:06.899Z,10.97
2018-07-13T06:24:35.877Z,12.27
2018-07-13T06:27:04.919Z,15.77
2018-07-13T06:29:33.950Z,11.87
2018-07-13T06:32:02.972Z,13.37
2018-07-13T06:34:32.036Z,11.17
2018-07-13T06:37:01.046Z,12.37
2018-07-13T06:39:30.162Z,12.07
2018-07-13T06:41:59.149Z,12.67
2018-07-13T06:44:28.193Z,12.03
2018-07-13T06:46:57.167Z,10.67
2018-07-13T06:49:26.148Z,11.70
2018-07-13T06:51:55.152Z,12.80
2018-07-13T06:54:24.146Z,10.97
2018-07-13T06:56:53.291Z,10.67
2018-07-13T06:59:22.214Z,9.93
2018-07-13T07:01:51.207Z,9.57
2018-07-13T07:04:24.366Z,10.40
2018-07-13T07:06:54.026Z,9.27
2018-07-13T07:09:23.638Z,9.23
2018-07-13T07:13:08.572Z,8.43
2018-07-13T07:15:37.778Z,8.07
2018-07-13T07:18:07.067Z,8.43
2018-07-13T07:20:36.098Z,8.87
2018-07-13T07:23:05.083Z,7.70
2018-07-13T07:25:34.128Z,7.70
2018-07-13T07:28:03.082Z,8.40
2018-07-13T07:30:32.178Z,7.93
2018-07-13T07:33:01.235Z,9.60
2018-07-13T07:35:30.250Z,8.47
2018-07-13T07:37:59.243Z,9.17
2018-07-13T07:40:28.268Z,9.23
2018-07-13T07:42:57.282Z,9.20
2018-07-13T07:45:26.306Z,10.80
2018-07-13T07:47:55.321Z,8.90
2018-07-13T07:50:24.278Z,9.50
2018-07-13T07:52:53.272Z,8.90
2018-07-13T07:55:22.284Z,10.33
2018-07-13T07:57:51.291Z,11.17
2018-07-13T08:00:20.319Z,7.60
2018-07-13T08:02:49.339Z,9.27
2018-07-13T08:05:18.367Z,10.40
2018-07-13T08:07:47.398Z,7.40
2018-07-13T08:10:16.415Z,7.37
2018-07-13T08:12:45.426Z,7.50
2018-07-13T08:15:14.482Z,8.53
2018-07-13T08:17:43.545Z,6.83
2018-07-13T08:20:17.469Z,4.13
2018-07-13T08:22:51.374Z,4.43
2018-07-13T08:25:20.818Z,5.30
2018-07-13T08:27:51.757Z,4.83
2018-07-13T08:30:39.003Z,4.23
2018-07-13T08:33:08.019Z,3.40
2018-07-13T08:35:36.974Z,6.40
2018-07-13T08:38:06.185Z,4.27
2018-07-13T08:40:35.166Z,5.60
2018-07-13T08:43:04.187Z,4.33
2018-07-13T08:45:33.216Z,4.43
2018-07-13T08:48:02.203Z,4.03
2018-07-13T08:50:31.567Z,2.90
2018-07-13T08:53:00.583Z,3.80
2018-07-13T08:55:29.792Z,3.97
2018-07-13T08:57:59.146Z,3.63
2018-07-13T09:00:28.233Z,4.37
2018-07-13T09:02:57.191Z,2.70
2018-07-13T09:05:26.182Z,4.10
2018-07-13T09:07:55.167Z,3.77
2018-07-13T09:10:24.178Z,6.33
2018-07-13T09:12:53.241Z,3.57
2018-07-13T09:15:22.210Z,3.53
2018-07-13T09:17:51.311Z,3.50
2018-07-13T09:20:24.599Z,3.17
2018-07-13T09:22:53.676Z,3.03
2018-07-13T09:25:22.664Z,4.43
2018-07-13T09:27:51.656Z,3.47
2018-07-13T09:30:20.667Z,4.90
2018-07-13T09:32:49.747Z,5.13
2018-07-13T09:35:18.762Z,4.97
2018-07-13T09:37:47.786Z,2.93
2018-07-13T09:40:16.803Z,3.10
2018-07-13T09:42:45.862Z,3.87
2018-07-13T09:45:14.864Z,3.50
2018-07-13T09:47:43.851Z,4.23
2018-07-13T09:50:13.195Z,5.43
2018-07-13T09:52:42.147Z,4.50
2018-07-13T09:55:11.316Z,3.97
2018-07-13T09:57:40.358Z,3.47
2018-07-13T10:00:10.819Z,3.47
2018-07-13T10:02:39.842Z,5.17
2018-07-13T10:05:08.941Z,3.70
2018-07-13T10:07:37.956Z,3.30
2018-07-13T10:10:06.955Z,7.13
2018-07-13T10:12:36.038Z,6.13
2018-07-13T10:15:05.091Z,3.20
2018-07-13T10:17:34.279Z,6.97
2018-07-13T10:20:03.354Z,4.03
2018-07-13T10:22:32.374Z,4.30
2018-07-13T10:25:03.066Z,4.30
2018-07-13T10:27:34.779Z,4.67
2018-07-13T10:30:04.845Z,5.17
2018-07-13T10:32:33.995Z,4.17
2018-07-13T10:35:04.480Z,6.37
2018-07-13T10:37:33.719Z,5.47
2018-07-13T10:40:02.714Z,7.03
2018-07-13T10:42:31.718Z,5.87
2018-07-13T10:45:00.723Z,5.23
2018-07-13T10:47:29.686Z,3.70
2018-07-13T10:49:58.689Z,5.10
2018-07-13T10:52:27.710Z,4.10
2018-07-13T10:54:56.681Z,4.60
2018-07-13T10:57:25.692Z,4.20
2018-07-13T10:59:54.662Z,4.20
2018-07-13T11:02:23.637Z,4.97
2018-07-13T11:04:52.611Z,4.77
2018-07-13T11:07:21.603Z,3.87
2018-07-13T11:09:50.562Z,4.80
2018-07-13T11:12:19.526Z,3.87
2018-07-13T11:14:48.551Z,3.50
2018-07-13T11:17:17.512Z,4.40
2018-07-13T11:19:46.517Z,3.80
2018-07-13T11:22:15.531Z,3.77
2018-07-13T11:24:44.510Z,4.83
2018-07-13T11:27:13.523Z,3.83
2018-07-13T11:29:42.669Z,3.43
2018-07-13T11:32:12.099Z,3.20
2018-07-13T11:34:41.206Z,3.10
2018-07-13T11:37:10.548Z,5.23
2018-07-13T11:39:39.302Z,6.77
2018-07-13T11:42:08.341Z,6.77
2018-07-13T11:44:37.371Z,4.03
2018-07-13T11:47:06.350Z,4.90
2018-07-13T11:49:35.363Z,3.73
2018-07-13T11:52:04.405Z,4.03
2018-07-13T11:54:33.416Z,4.60
2018-07-13T11:57:02.434Z,3.20
2018-07-13T11:59:31.402Z,2.70
2018-07-13T12:02:00.456Z,3.37
2018-07-13T12:04:29.440Z,3.27
2018-07-13T12:06:58.420Z,3.33
2018-07-13T12:09:27.392Z,2.60
2018-07-13T12:11:56.368Z,2.43
2018-07-13T12:14:25.432Z,3.43
2018-07-13T12:16:54.362Z,2.50
2018-07-13T12:19:23.378Z,2.47
2018-07-13T12:21:52.426Z,3.63
2018-07-13T12:24:21.512Z,2.23
2018-07-13T12:26:50.493Z,2.13
2018-07-13T12:29:19.594Z,3.07
2018-07-13T12:31:48.578Z,2.63
2018-07-13T12:34:17.671Z,4.47
2018-07-13T12:36:46.736Z,6.00
2018-07-13T12:39:16.852Z,3.63
2018-07-13T12:41:45.839Z,4.73
2018-07-13T12:44:14.850Z,3.03
2018-07-13T12:46:43.863Z,3.37
2018-07-13T12:49:13.168Z,3.17
2018-07-13T12:51:42.135Z,3.50
2018-07-13T12:54:11.181Z,3.43
2018-07-13T12:56:40.087Z,6.30
2018-07-13T12:59:09.054Z,2.90
2018-07-13T13:01:38.027Z,2.77
2018-07-13T13:04:06.991Z,2.50
2018-07-13T13:06:36.011Z,4.13
2018-07-13T13:09:05.334Z,4.70
2018-07-13T13:11:34.339Z,3.93
2018-07-13T13:14:03.374Z,5.13
2018-07-13T13:16:32.348Z,4.93
2018-07-13T13:19:01.316Z,3.23
2018-07-13T13:21:30.417Z,3.73
2018-07-13T13:23:59.451Z,3.87
2018-07-13T13:26:28.425Z,2.70
2018-07-13T13:28:57.404Z,3.07
2018-07-13T13:31:26.408Z,5.20
2018-07-13T13:33:55.371Z,3.03
2018-07-13T13:36:24.353Z,3.80
2018-07-13T13:38:53.310Z,3.13
2018-07-13T13:41:22.343Z,3.70
2018-07-13T13:43:51.312Z,4.23
2018-07-13T13:46:20.286Z,3.23
2018-07-13T13:48:49.252Z,3.90
2018-07-13T13:51:18.206Z,4.00
2018-07-13T13:53:47.316Z,5.20
2018-07-13T13:56:16.258Z,4.47
2018-07-13T13:58:45.215Z,4.60
2018-07-13T14:01:14.235Z,3.90
2018-07-13T14:03:43.284Z,6.47
2018-07-13T14:06:12.306Z,4.33
2018-07-13T14:08:41.354Z,2.53
2018-07-13T14:11:10.397Z,3.40
2018-07-13T14:13:39.451Z,3.20
2018-07-13T14:16:08.486Z,3.53
2018-07-13T14:18:37.462Z,3.53
2018-07-13T14:21:08.672Z,5.07
2018-07-13T14:23:39.606Z,4.13
2018-07-13T14:26:09.926Z,3.83
2018-07-13T14:28:38.947Z,4.10
2018-07-13T14:31:07.911Z,5.83
2018-07-13T14:33:36.919Z,4.73
2018-07-13T14:36:05.879Z,3.93
2018-07-13T14:38:34.880Z,4.97
2018-07-13T14:41:03.843Z,5.27
2018-07-13T14:43:39.969Z,3.97
2018-07-13T14:46:08.939Z,4.13
2018-07-13T14:48:38.191Z,4.70
2018-07-13T14:51:07.479Z,6.17
2018-07-13T14:53:36.455Z,3.10
2018-07-13T14:56:05.512Z,3.37
2018-07-13T14:58:34.442Z,3.83
2018-07-13T15:01:03.447Z,3.13
2018-07-13T15:03:32.403Z,3.43
2018-07-13T15:06:01.501Z,2.80
2018-07-13T15:08:30.358Z,5.00
2018-07-13T15:10:59.346Z,7.33
2018-07-13T15:13:28.345Z,3.30
2018-07-13T15:15:57.303Z,3.30
2018-07-13T15:18:26.311Z,6.10
2018-07-13T15:20:55.399Z,2.80
2018-07-13T15:23:24.364Z,3.30
2018-07-13T15:25:53.324Z,2.97
2018-07-13T15:28:22.311Z,2.83
2018-07-13T15:30:51.290Z,3.00
2018-07-13T15:33:20.333Z,3.43
2018-07-13T15:35:49.278Z,3.87
2018-07-13T15:38:18.278Z,3.57
2018-07-13T15:40:47.354Z,3.13
2018-07-13T15:43:16.384Z,2.83
2018-07-13T15:45:45.340Z,3.60
2018-07-13T15:48:14.294Z,3.07
2018-07-13T15:50:43.251Z,1.60
2018-07-13T15:53:12.260Z,2.23
2018-07-13T15:55:46.619Z,1.50
2018-07-13T15:58:15.587Z,1.63
2018-07-13T16:00:44.563Z,2.93
2018-07-13T16:03:13.518Z,2.70
2018-07-13T16:05:42.530Z,3.07
2018-07-13T16:08:11.474Z,4.87
2018-07-13T16:10:40.481Z,1.53
2018-07-13T16:13:09.474Z,4.43
2018-07-13T16:15:38.470Z,1.33
2018-07-13T16:18:07.444Z,2.40
2018-07-13T16:20:36.406Z,2.80
2018-07-13T16:23:05.523Z,1.43
2018-07-13T16:25:34.463Z,2.83
2018-07-13T16:28:03.451Z,2.57
2018-07-13T16:30:32.417Z,1.27
2018-07-13T16:33:01.375Z,1.67
2018-07-13T16:35:30.459Z,1.73
2018-07-13T16:37:59.426Z,1.00
2018-07-13T16:40:28.383Z,2.70
2018-07-13T16:42:57.398Z,1.73
2018-07-13T16:45:26.355Z,1.57
2018-07-13T16:47:55.455Z,1.37
2018-07-13T16:50:24.426Z,1.73
2018-07-13T16:52:53.382Z,2.87
2018-07-13T16:55:22.479Z,2.17
2018-07-13T16:57:51.422Z,2.17
2018-07-13T17:00:20.386Z,2.10
2018-07-13T17:02:49.370Z,2.40
2018-07-13T17:05:18.407Z,1.83
2018-07-13T17:07:47.368Z,2.00
2018-07-13T17:10:16.329Z,2.70
2018-07-13T17:12:45.310Z,2.00
2018-07-13T17:15:14.242Z,1.67
2018-07-13T17:17:43.196Z,2.00
2018-07-13T17:20:12.283Z,1.50
2018-07-13T17:22:41.202Z,1.50
2018-07-13T17:25:10.164Z,1.30
2018-07-13T17:27:39.171Z,2.27
2018-07-13T17:30:09.079Z,1.80
2018-07-13T17:32:38.044Z,2.83
2018-07-13T17:35:07.075Z,1.90
2018-07-13T17:37:36.014Z,2.43
2018-07-13T17:40:04.984Z,2.00
2018-07-13T17:42:34.010Z,2.27
2018-07-13T17:45:03.171Z,2.77
2018-07-13T17:47:32.187Z,2.07
2018-07-13T17:50:01.198Z,1.87
2018-07-13T17:52:30.326Z,1.93
2018-07-13T17:54:59.360Z,2.50
2018-07-13T17:57:28.362Z,1.70
2018-07-13T17:59:57.298Z,2.07
2018-07-13T18:02:26.255Z,2.43
2018-07-13T18:04:55.204Z,1.87
2018-07-13T18:07:24.220Z,2.20
2018-07-13T18:09:53.206Z,2.37
2018-07-13T18:12:22.219Z,2.50
2018-07-13T18:14:51.211Z,2.63
2018-07-13T18:17:20.233Z,2.20
2018-07-13T18:19:49.193Z,2.33
2018-07-13T18:22:19.199Z,2.47
2018-07-13T18:24:48.222Z,2.10
2018-07-13T18:27:17.206Z,2.10
2018-07-13T18:29:46.202Z,2.80
2018-07-13T18:32:15.150Z,3.03
2018-07-13T18:34:44.163Z,3.17
2018-07-13T18:37:13.106Z,2.30
2018-07-13T18:39:42.087Z,2.67
2018-07-13T18:42:11.059Z,2.57
2018-07-13T18:44:40.044Z,2.70
2018-07-13T18:47:09.258Z,2.30
2018-07-13T18:49:38.415Z,3.27
2018-07-13T18:52:07.740Z,2.50
2018-07-13T18:54:36.706Z,2.47
2018-07-13T18:57:05.881Z,2.60
2018-07-13T18:59:34.862Z,3.30
2018-07-13T19:02:04.113Z,3.10
2018-07-13T19:04:33.064Z,3.10
2018-07-13T19:07:02.038Z,3.20
2018-07-13T19:09:31.025Z,3.33
2018-07-13T19:12:00.047Z,3.33
2018-07-13T19:14:29.011Z,3.20
2018-07-13T19:16:57.986Z,2.93
2018-07-13T19:19:26.986Z,2.90
2018-07-13T19:21:56.106Z,3.13
2018-07-13T19:24:25.019Z,4.73
2018-07-13T19:26:54.058Z,3.70
2018-07-13T19:29:23.089Z,3.63
2018-07-13T19:31:52.079Z,4.57
2018-07-13T19:34:21.027Z,3.60
2018-07-13T19:36:50.006Z,3.60
2018-07-13T19:39:19.018Z,5.17
2018-07-13T19:41:48.031Z,3.67
2018-07-13T19:44:16.987Z,3.90
2018-07-13T19:46:45.943Z,3.50
2018-07-13T19:49:14.919Z,4.20
2018-07-13T19:51:43.939Z,5.13
2018-07-13T19:54:12.961Z,4.00
2018-07-13T19:56:42.001Z,4.50
2018-07-13T19:59:10.951Z,4.67
2018-07-13T20:01:39.999Z,4.87
2018-07-13T20:04:08.950Z,4.73
2018-07-13T20:06:37.943Z,4.37
2018-07-13T20:09:07.174Z,5.17
2018-07-13T20:11:36.175Z,4.30
2018-07-13T20:14:05.250Z,4.13
2018-07-13T20:16:34.222Z,4.77
2018-07-13T20:19:03.191Z,3.90
2018-07-13T20:21:32.301Z,4.10
2018-07-13T20:24:01.263Z,5.33
2018-07-13T20:26:30.306Z,4.33
2018-07-13T20:28:59.246Z,4.03
2018-07-13T20:31:28.270Z,4.33
2018-07-13T20:33:57.239Z,3.80
2018-07-13T20:36:26.197Z,5.77
2018-07-13T20:38:55.155Z,4.70
2018-07-13T20:41:24.232Z,4.27
2018-07-13T20:43:53.187Z,4.20
2018-07-13T20:46:22.167Z,4.03
2018-07-13T20:48:51.129Z,4.90
2018-07-13T20:51:20.119Z,4.90
2018-07-13T20:53:49.326Z,5.37
2018-07-13T20:56:18.367Z,4.90
2018-07-13T20:58:48.250Z,5.10
2018-07-13T21:01:17.285Z,6.23
2018-07-13T21:03:46.259Z,5.43
2018-07-13T21:06:15.226Z,4.30
2018-07-13T21:08:44.235Z,5.03
2018-07-13T21:11:13.194Z,5.20
2018-07-13T21:13:42.171Z,5.13
2018-07-13T21:16:11.906Z,6.00
2018-07-13T21:18:40.863Z,4.90
2018-07-13T21:21:09.909Z,5.57
2018-07-13T21:23:38.858Z,5.67
2018-07-13T21:26:07.812Z,5.67
2018-07-13T21:28:37.052Z,5.07
2018-07-13T21:31:06.135Z,5.03
2018-07-13T21:33:35.101Z,5.80
2018-07-13T21:36:05.035Z,5.30
2018-07-13T21:38:34.134Z,4.77
2018-07-13T21:41:03.480Z,5.30
2018-07-13T21:43:32.494Z,4.80
2018-07-13T21:46:01.447Z,5.43
2018-07-13T21:48:30.435Z,5.73
2018-07-13T21:50:59.390Z,4.53
2018-07-13T21:53:28.353Z,5.17
2018-07-13T21:55:57.295Z,5.07
2018-07-13T21:58:26.315Z,5.00
2018-07-13T22:00:55.331Z,4.90
2018-07-13T22:03:24.283Z,5.03
2018-07-13T22:05:53.246Z,5.30
2018-07-13T22:08:22.345Z,5.40
2018-07-13T22:10:51.396Z,5.70
2018-07-13T22:13:20.446Z,5.70
2018-07-13T22:15:49.351Z,6.17
2018-07-13T22:18:18.335Z,6.53
2018-07-13T22:20:47.296Z,5.90
2018-07-13T22:23:16.535Z,5.87
2018-07-13T22:25:45.588Z,6.70
2018-07-13T22:28:14.643Z,6.50
2018-07-13T22:30:43.620Z,6.27
2018-07-13T22:33:12.606Z,6.70
2018-07-13T22:35:41.549Z,7.73
2018-07-13T22:38:10.546Z,6.10
2018-07-13T22:40:39.522Z,5.60
2018-07-13T22:43:08.619Z,6.47
2018-07-13T22:45:37.576Z,5.83
2018-07-13T22:48:06.559Z,6.13
2018-07-13T22:50:35.674Z,7.33
2018-07-13T22:53:05.935Z,6.17
2018-07-13T22:55:34.945Z,6.87
2018-07-13T22:58:03.998Z,6.80
2018-07-13T23:00:33.211Z,6.73
2018-07-13T23:03:02.187Z,6.30
2018-07-13T23:05:31.207Z,6.87
2018-07-13T23:08:00.220Z,7.20
2018-07-13T23:10:29.218Z,7.47
2018-07-13T23:12:58.177Z,6.60
2018-07-13T23:15:27.159Z,7.00
2018-07-13T23:17:56.127Z,7.50
2018-07-13T23:20:25.127Z,6.90
2018-07-13T23:22:54.085Z,7.23
2018-07-13T23:25:23.063Z,7.47
2018-07-13T23:27:52.024Z,7.90
2018-07-13T23:30:20.980Z,7.63
2018-07-13T23:32:49.974Z,7.07
2018-07-13T23:35:19.007Z,7.07
2018-07-13T23:37:47.963Z,6.60
2018-07-13T23:40:16.999Z,7.20
2018-07-13T23:42:45.996Z,7.50
2018-07-13T23:45:15.018Z,6.90
2018-07-13T23:47:44.040Z,6.63
2018-07-13T23:50:13.006Z,6.90
2018-07-13T23:52:42.026Z,6.97
2018-07-13T23:55:11.080Z,7.10
2018-07-13T23:57:40.082Z,7.10
